createdAt,value
2016-10-27T00:00:16.605Z,0
2016-10-27T00:01:16.659Z,0
2016-10-27T00:02:16.810Z,0
2016-10-27T00:03:16.785Z,0
2016-10-27T00:04:16.863Z,0
2016-10-27T00:05:16.916Z,0
2016-10-27T00:06:17.158Z,0
2016-10-27T00:07:17.096Z,0
2016-10-27T00:08:17.257Z,0
2016-10-27T00:09:17.088Z,0
2016-10-27T00:10:17.174Z,0
2016-10-27T00:11:17.246Z,0
2016-10-27T00:12:17.545Z,0
2016-10-27T00:13:17.297Z,0
2016-10-27T00:14:17.361Z,0
2016-10-27T00:15:17.424Z,0
2016-10-27T00:16:18.022Z,0
2016-10-27T00:17:18.141Z,0
2016-10-27T00:18:17.559Z,0
2016-10-27T00:19:17.638Z,0
2016-10-27T00:20:17.609Z,0
2016-10-27T00:21:17.712Z,0
2016-10-27T00:23:12.358Z,0
2016-10-27T00:24:12.362Z,0
2016-10-27T00:25:12.407Z,0
2016-10-27T00:26:12.484Z,0
2016-10-27T00:27:13.035Z,0
2016-10-27T00:28:12.681Z,0
2016-10-27T00:29:12.620Z,0
2016-10-27T00:30:13.175Z,0
2016-10-27T00:31:12.721Z,0
2016-10-27T00:32:13.775Z,0
2016-10-27T00:33:12.894Z,0
2016-10-27T00:34:12.833Z,0
2016-10-27T00:35:12.913Z,0
2016-10-27T00:36:12.990Z,0
2016-10-27T00:37:13.541Z,0
2016-10-27T00:38:13.169Z,0
2016-10-27T00:39:13.315Z,0
2016-10-27T00:40:13.207Z,0
2016-10-27T00:41:13.229Z,0
2016-10-27T00:42:13.305Z,0
2016-10-27T00:43:13.403Z,0
2016-10-27T00:44:13.458Z,0
2016-10-27T00:45:13.658Z,0
2016-10-27T00:46:13.511Z,0
2016-10-27T00:47:13.503Z,0
2016-10-27T00:48:13.695Z,0
2016-10-27T00:49:13.619Z,0
2016-10-27T00:50:13.659Z,0
2016-10-27T00:51:13.751Z,0
2016-10-27T00:52:13.987Z,0
2016-10-27T00:53:13.922Z,0
2016-10-27T00:54:14.060Z,0
2016-10-27T00:55:14.008Z,0
2016-10-27T00:56:14.050Z,0
2016-10-27T00:57:14.084Z,0
2016-10-27T00:58:14.164Z,0
2016-10-27T00:59:14.289Z,0
2016-10-27T01:00:14.201Z,0
2016-10-27T01:01:14.263Z,0
2016-10-27T01:02:14.403Z,0
2016-10-27T01:03:14.604Z,0
2016-10-27T01:04:14.564Z,0
2016-10-27T01:05:14.499Z,0
2016-10-27T01:06:14.568Z,0
2016-10-27T01:07:14.622Z,0
2016-10-27T01:08:14.664Z,0
2016-10-27T01:09:15.327Z,0
2016-10-27T01:10:14.759Z,0
2016-10-27T01:11:14.793Z,0
2016-10-27T01:12:15.394Z,0
2016-10-27T01:13:14.891Z,0
2016-10-27T01:14:15.065Z,0
2016-10-27T01:15:15.029Z,0
2016-10-27T01:16:15.135Z,0
2016-10-27T01:17:15.145Z,0
2016-10-27T01:18:15.191Z,0
2016-10-27T01:19:15.333Z,0
2016-10-27T01:20:15.280Z,0
2016-10-27T01:21:15.371Z,0
2016-10-27T01:22:15.364Z,0
2016-10-27T01:23:15.482Z,0
2016-10-27T01:24:15.613Z,0
2016-10-27T01:25:15.551Z,0
2016-10-27T01:26:47.245Z,0
2016-10-27T01:27:15.621Z,0
2016-10-27T01:28:15.725Z,0
2016-10-27T01:29:16.882Z,0
2016-10-27T01:30:16.284Z,0
2016-10-27T01:31:15.833Z,0
2016-10-27T01:32:15.874Z,0
2016-10-27T01:33:15.962Z,0
2016-10-27T01:34:16.541Z,0
2016-10-27T01:35:16.188Z,0
2016-10-27T01:36:16.129Z,0
2016-10-27T01:37:16.147Z,0
2016-10-27T01:38:16.184Z,0
2016-10-27T01:39:16.262Z,0
2016-10-27T01:40:16.453Z,0
2016-10-27T01:41:16.335Z,0
2016-10-27T01:42:16.443Z,0
2016-10-27T01:43:16.491Z,0
2016-10-27T01:44:17.083Z,0
2016-10-27T01:45:16.716Z,0
2016-10-27T01:46:16.638Z,0
2016-10-27T01:47:16.715Z,0
2016-10-27T01:48:16.769Z,0
2016-10-27T01:49:16.807Z,0
2016-10-27T01:50:16.962Z,0
2016-10-27T01:51:16.868Z,0
2016-10-27T01:52:17.223Z,0
2016-10-27T01:53:17.509Z,0
2016-10-27T01:54:17.099Z,0
2016-10-27T01:55:17.221Z,0
2016-10-27T01:56:17.133Z,0
2016-10-27T01:57:17.194Z,0
2016-10-27T01:58:17.292Z,0
2016-10-27T01:59:17.316Z,0
2016-10-27T02:00:18.021Z,0
2016-10-27T02:01:17.396Z,0
2016-10-27T02:02:17.978Z,0
2016-10-27T02:03:17.482Z,0
2016-10-27T02:04:17.543Z,0
2016-10-27T02:05:17.699Z,0
2016-10-27T02:06:17.730Z,0
2016-10-27T02:07:17.738Z,0
2016-10-27T02:08:17.778Z,0
2016-10-27T02:09:17.847Z,0
2016-10-27T02:10:17.987Z,0
2016-10-27T02:11:17.981Z,0
2016-10-27T02:12:18.017Z,0
2016-10-27T02:13:18.000Z,0
2016-10-27T02:14:18.148Z,0
2016-10-27T02:15:18.141Z,0
2016-10-27T02:16:18.290Z,0
2016-10-27T02:17:18.712Z,0
2016-10-27T02:18:18.341Z,0
2016-10-27T02:19:18.329Z,0
2016-10-27T02:20:18.410Z,0
2016-10-27T02:21:18.526Z,0
2016-10-27T02:22:18.574Z,0
2016-10-27T02:23:19.100Z,0
2016-10-27T02:24:18.677Z,0
2016-10-27T02:25:18.676Z,0
2016-10-27T02:26:18.874Z,0
2016-10-27T02:27:19.347Z,0
2016-10-27T02:28:18.857Z,0
2016-10-27T02:29:18.955Z,0
2016-10-27T02:30:18.965Z,0
2016-10-27T02:31:19.102Z,0
2016-10-27T02:32:19.044Z,0
2016-10-27T02:33:19.057Z,0
2016-10-27T02:34:19.175Z,0
2016-10-27T02:35:19.224Z,0
2016-10-27T02:36:19.357Z,0
2016-10-27T02:37:19.313Z,0
2016-10-27T02:38:19.925Z,0
2016-10-27T02:39:19.417Z,0
2016-10-27T02:40:19.467Z,0
2016-10-27T02:41:20.076Z,0
2016-10-27T02:42:19.589Z,0
2016-10-27T02:43:19.599Z,0
2016-10-27T02:44:19.733Z,0
2016-10-27T02:45:19.709Z,0
2016-10-27T02:46:19.764Z,0
2016-10-27T02:47:19.935Z,0
2016-10-27T02:48:19.872Z,0
2016-10-27T02:49:19.899Z,0
2016-10-27T02:50:19.978Z,0
2016-10-27T02:51:20.077Z,0
2016-10-27T02:52:20.187Z,0
2016-10-27T02:53:20.110Z,0
2016-10-27T02:54:20.159Z,0
2016-10-27T02:55:20.299Z,0
2016-10-27T02:56:20.347Z,0
2016-10-27T02:57:20.386Z,0
2016-10-27T02:58:20.437Z,0
2016-10-27T02:59:20.404Z,0
2016-10-27T03:00:20.474Z,0
2016-10-27T03:01:21.122Z,0
2016-10-27T03:02:21.214Z,0
2016-10-27T03:03:20.665Z,0
2016-10-27T03:04:20.729Z,0
2016-10-27T03:05:20.981Z,0
2016-10-27T03:06:20.825Z,0
2016-10-27T03:07:20.931Z,0
2016-10-27T03:08:20.922Z,0
2016-10-27T03:09:20.985Z,0
2016-10-27T03:10:21.547Z,0
2016-10-27T03:11:21.095Z,0
2016-10-27T03:12:21.216Z,0
2016-10-27T03:13:21.159Z,0
2016-10-27T03:14:21.281Z,0
2016-10-27T03:15:21.867Z,0
2016-10-27T03:16:21.861Z,0
2016-10-27T03:17:21.423Z,0
2016-10-27T03:18:22.078Z,0
2016-10-27T03:19:21.636Z,0
2016-10-27T03:20:22.076Z,0
2016-10-27T03:21:21.613Z,0
2016-10-27T03:22:21.660Z,0
2016-10-27T03:23:21.855Z,0
2016-10-27T03:24:22.299Z,0
2016-10-27T03:25:22.302Z,0
2016-10-27T03:26:22.355Z,0
2016-10-27T03:27:21.902Z,0
2016-10-27T03:28:22.048Z,0
2016-10-27T03:29:22.625Z,0
2016-10-27T03:30:22.084Z,0
2016-10-27T03:31:22.140Z,0
2016-10-27T03:32:22.200Z,0
2016-10-27T03:33:22.256Z,0
2016-10-27T03:34:22.294Z,0
2016-10-27T03:35:22.315Z,0
2016-10-27T03:36:22.380Z,0
2016-10-27T03:37:22.424Z,0
2016-10-27T03:38:22.636Z,0
2016-10-27T03:39:22.553Z,0
2016-10-27T03:40:22.590Z,0
2016-10-27T03:41:22.598Z,0
2016-10-27T03:42:22.704Z,0
2016-10-27T03:43:22.829Z,0
2016-10-27T03:44:22.803Z,0
2016-10-27T03:45:22.858Z,0
2016-10-27T03:46:22.948Z,0
2016-10-27T03:47:22.978Z,0
2016-10-27T03:48:23.033Z,0
2016-10-27T03:49:23.117Z,0
2016-10-27T03:50:23.135Z,0
2016-10-27T03:51:23.154Z,0
2016-10-27T03:52:23.163Z,0
2016-10-27T03:53:23.330Z,0
2016-10-27T03:54:23.377Z,0
2016-10-27T03:55:23.344Z,0
2016-10-27T03:56:23.416Z,0
2016-10-27T03:57:23.482Z,0
2016-10-27T03:58:23.748Z,0
2016-10-27T03:59:23.703Z,0
2016-10-27T04:00:23.633Z,0
2016-10-27T04:01:23.906Z,0
2016-10-27T04:02:23.946Z,0
2016-10-27T04:03:24.033Z,0
2016-10-27T04:04:24.301Z,0
2016-10-27T04:05:24.173Z,0
2016-10-27T04:06:24.152Z,0
2016-10-27T04:07:24.771Z,0
2016-10-27T04:08:24.121Z,0
2016-10-27T04:09:24.292Z,0
2016-10-27T04:10:24.174Z,0
2016-10-27T04:11:24.266Z,0
2016-10-27T04:12:25.078Z,0
2016-10-27T04:13:24.376Z,0
2016-10-27T04:14:25.058Z,0
2016-10-27T04:15:24.479Z,0
2016-10-27T04:16:24.530Z,0
2016-10-27T04:17:24.565Z,0
2016-10-27T04:18:24.619Z,0
2016-10-27T04:19:24.803Z,0
2016-10-27T04:20:24.739Z,0
2016-10-27T04:21:24.808Z,0
2016-10-27T04:22:25.381Z,0
2016-10-27T04:23:24.899Z,0
2016-10-27T04:24:25.078Z,0
2016-10-27T04:25:24.982Z,0
2016-10-27T04:26:25.027Z,0
2016-10-27T04:27:25.520Z,0
2016-10-27T04:28:25.609Z,0
2016-10-27T04:29:25.247Z,0
2016-10-27T04:30:25.362Z,0
2016-10-27T04:31:25.884Z,0
2016-10-27T04:32:25.326Z,0
2016-10-27T04:33:25.440Z,0
2016-10-27T04:34:25.499Z,0
2016-10-27T04:35:25.598Z,0
2016-10-27T04:36:25.548Z,0
2016-10-27T04:37:25.637Z,0
2016-10-27T04:38:25.653Z,0
2016-10-27T04:39:25.692Z,0
2016-10-27T04:40:25.937Z,0
2016-10-27T04:41:25.835Z,0
2016-10-27T04:42:25.848Z,0
2016-10-27T04:43:26.414Z,0
2016-10-27T04:44:25.991Z,0
2016-10-27T04:45:26.189Z,0
2016-10-27T04:46:26.065Z,0
2016-10-27T04:47:26.745Z,0
2016-10-27T04:48:26.808Z,0
2016-10-27T04:49:26.816Z,0
2016-10-27T04:50:26.438Z,0
2016-10-27T04:51:26.399Z,0
2016-10-27T04:52:26.440Z,0
2016-10-27T04:53:26.511Z,0
2016-10-27T04:54:26.507Z,0
2016-10-27T04:55:26.703Z,0
2016-10-27T04:56:26.697Z,0
2016-10-27T04:57:26.695Z,0
2016-10-27T04:58:27.205Z,0
2016-10-27T04:59:26.761Z,0
2016-10-27T05:00:26.849Z,0
2016-10-27T05:01:26.906Z,0
2016-10-27T05:02:26.886Z,0
2016-10-27T05:03:26.980Z,0
2016-10-27T05:04:26.980Z,0
2016-10-27T05:05:27.243Z,0
2016-10-27T05:06:27.162Z,0
2016-10-27T05:07:27.188Z,0
2016-10-27T05:08:27.266Z,0
2016-10-27T05:09:27.262Z,0
2016-10-27T05:10:27.531Z,0
2016-10-27T05:11:27.542Z,0
2016-10-27T05:12:27.482Z,0
2016-10-27T05:13:27.517Z,0
2016-10-27T05:14:27.497Z,0
2016-10-27T05:15:27.626Z,0
2016-10-27T05:16:27.768Z,0
2016-10-27T05:17:27.755Z,0
2016-10-27T05:18:27.772Z,0
2016-10-27T05:19:27.820Z,0
2016-10-27T05:20:27.848Z,0
2016-10-27T05:21:27.979Z,0
2016-10-27T05:22:27.986Z,0
2016-10-27T05:23:28.037Z,0
2016-10-27T05:24:28.155Z,0
2016-10-27T05:25:28.115Z,0
2016-10-27T05:26:28.272Z,0
2016-10-27T05:27:28.156Z,0
2016-10-27T05:28:28.240Z,0
2016-10-27T05:29:28.876Z,0
2016-10-27T05:30:28.410Z,0
2016-10-27T05:31:28.984Z,0
2016-10-27T05:32:28.487Z,0
2016-10-27T05:33:28.596Z,0
2016-10-27T05:34:28.525Z,0
2016-10-27T05:35:28.641Z,0
2016-10-27T05:36:28.793Z,0
2016-10-27T05:37:29.299Z,0
2016-10-27T05:38:28.817Z,0
2016-10-27T05:39:28.904Z,0
2016-10-27T05:40:29.406Z,0
2016-10-27T05:41:29.064Z,0
2016-10-27T05:42:29.573Z,0
2016-10-27T05:43:29.062Z,0
2016-10-27T05:44:29.070Z,0
2016-10-27T05:45:29.142Z,0
2016-10-27T05:46:29.875Z,0
2016-10-27T05:47:29.273Z,0
2016-10-27T05:48:29.285Z,0
2016-10-27T05:49:29.374Z,0
2016-10-27T05:50:29.365Z,0
2016-10-27T05:51:29.431Z,0
2016-10-27T05:52:29.779Z,0
2016-10-27T05:53:29.599Z,0
2016-10-27T05:54:29.648Z,0
2016-10-27T05:55:29.647Z,0
2016-10-27T05:56:29.651Z,0
2016-10-27T05:57:30.374Z,0
2016-10-27T05:58:29.811Z,0
2016-10-27T05:59:29.895Z,0
2016-10-27T06:00:30.419Z,0
2016-10-27T06:01:29.966Z,0
2016-10-27T06:02:30.148Z,0
2016-10-27T06:03:30.098Z,0
2016-10-27T06:04:30.151Z,0
2016-10-27T06:05:30.990Z,0
2016-10-27T06:06:30.268Z,0
2016-10-27T06:07:30.380Z,0
2016-10-27T06:08:30.338Z,0
2016-10-27T06:09:30.402Z,0
2016-10-27T06:10:30.448Z,0
2016-10-27T06:11:30.528Z,0
2016-10-27T06:12:30.687Z,0
2016-10-27T06:13:30.614Z,0
2016-10-27T06:14:30.635Z,0
2016-10-27T06:15:30.727Z,0
2016-10-27T06:16:30.759Z,0
2016-10-27T06:17:30.941Z,0
2016-10-27T06:18:30.838Z,0
2016-10-27T06:19:30.908Z,0
2016-10-27T06:20:31.201Z,0
2016-10-27T06:21:31.015Z,0
2016-10-27T06:22:31.080Z,0
2016-10-27T06:23:31.183Z,0
2016-10-27T06:24:31.137Z,0
2016-10-27T06:25:31.236Z,0
2016-10-27T06:26:31.262Z,0
2016-10-27T06:27:31.348Z,0
2016-10-27T06:28:31.457Z,0
2016-10-27T06:29:31.429Z,0
2016-10-27T06:30:31.519Z,0
2016-10-27T06:31:31.533Z,0
2016-10-27T06:32:31.629Z,0
2016-10-27T06:33:31.732Z,0
2016-10-27T06:34:31.710Z,0
2016-10-27T06:35:31.721Z,0
2016-10-27T06:36:31.817Z,0
2016-10-27T06:37:31.844Z,0
2016-10-27T06:38:32.029Z,0
2016-10-27T06:39:32.494Z,0
2016-10-27T06:40:31.999Z,0
2016-10-27T06:41:32.057Z,0
2016-10-27T06:42:32.106Z,0
2016-10-27T06:43:32.881Z,0
2016-10-27T06:44:32.748Z,0
2016-10-27T06:45:32.276Z,0
2016-10-27T06:46:32.312Z,0
2016-10-27T06:47:32.296Z,0
2016-10-27T06:48:32.484Z,0
2016-10-27T06:49:32.423Z,0
2016-10-27T06:50:32.507Z,0
2016-10-27T06:51:33.080Z,0
2016-10-27T06:52:32.573Z,0
2016-10-27T06:53:32.772Z,0
2016-10-27T06:54:32.718Z,0
2016-10-27T06:55:32.749Z,0
2016-10-27T06:56:32.828Z,0
2016-10-27T06:57:32.918Z,0
2016-10-27T06:58:32.912Z,0
2016-10-27T06:59:33.057Z,0
2016-10-27T07:00:33.004Z,0
2016-10-27T07:01:33.074Z,0
2016-10-27T07:02:33.128Z,0
2016-10-27T07:03:33.149Z,0
2016-10-27T07:04:33.309Z,0
2016-10-27T07:05:33.276Z,0
2016-10-27T07:06:33.328Z,0
2016-10-27T07:07:33.364Z,0
2016-10-27T07:08:33.489Z,0
2016-10-27T07:09:33.598Z,0
2016-10-27T07:10:33.620Z,0
2016-10-27T07:11:33.582Z,0
2016-10-27T07:12:33.636Z,0
2016-10-27T07:13:33.726Z,0
2016-10-27T07:14:33.824Z,0
2016-10-27T07:15:33.756Z,0
2016-10-27T07:16:33.848Z,0
2016-10-27T07:17:33.920Z,0
2016-10-27T07:18:34.047Z,0
2016-10-27T07:19:34.098Z,0
2016-10-27T07:20:34.045Z,0
2016-10-27T07:21:34.072Z,0
2016-10-27T07:22:34.116Z,0
2016-10-27T07:23:34.257Z,0
2016-10-27T07:24:34.366Z,0
2016-10-27T07:25:34.266Z,0
2016-10-27T07:26:34.885Z,0
2016-10-27T07:27:34.431Z,0
2016-10-27T07:28:35.033Z,0
2016-10-27T07:29:34.600Z,0
2016-10-27T07:30:34.573Z,0
2016-10-27T07:31:34.615Z,0
2016-10-27T07:32:34.663Z,0
2016-10-27T07:33:34.700Z,0
2016-10-27T07:34:34.766Z,0
2016-10-27T07:35:34.925Z,0
2016-10-27T07:36:34.903Z,0
2016-10-27T07:37:34.942Z,0
2016-10-27T07:38:34.982Z,0
2016-10-27T07:39:35.584Z,0
2016-10-27T07:40:35.736Z,0
2016-10-27T07:41:35.136Z,0
2016-10-27T07:42:35.152Z,0
2016-10-27T07:43:35.204Z,0
2016-10-27T07:44:35.219Z,0
2016-10-27T07:45:35.418Z,0
2016-10-27T07:46:35.398Z,0
2016-10-27T07:47:35.379Z,0
2016-10-27T07:48:35.486Z,0
2016-10-27T07:49:35.544Z,0
2016-10-27T07:50:35.692Z,0
2016-10-27T07:51:36.121Z,0
2016-10-27T07:52:35.681Z,0
2016-10-27T07:53:35.726Z,0
2016-10-27T07:54:35.798Z,0
2016-10-27T07:55:35.989Z,0
2016-10-27T07:56:35.916Z,0
2016-10-27T07:57:35.927Z,0
2016-10-27T07:58:36.054Z,0
2016-10-27T07:59:36.010Z,0
2016-10-27T08:00:36.226Z,0
2016-10-27T08:01:36.645Z,0
2016-10-27T08:02:36.221Z,0
2016-10-27T08:03:36.260Z,0
2016-10-27T08:04:36.299Z,0
2016-10-27T08:05:36.382Z,0
2016-10-27T08:06:36.505Z,0
2016-10-27T08:07:36.448Z,0
2016-10-27T08:08:36.455Z,0
2016-10-27T08:09:36.511Z,0
2016-10-27T08:10:36.648Z,0
2016-10-27T08:11:36.817Z,0
2016-10-27T08:12:36.705Z,0
2016-10-27T08:13:36.786Z,0
2016-10-27T08:14:37.388Z,0
2016-10-27T08:15:36.863Z,0
2016-10-27T08:16:37.574Z,0
2016-10-27T08:17:37.014Z,0
2016-10-27T08:18:36.997Z,0
2016-10-27T08:19:37.059Z,0
2016-10-27T08:20:37.091Z,0
2016-10-27T08:21:37.259Z,0
2016-10-27T08:22:37.251Z,0
2016-10-27T08:23:37.808Z,0
2016-10-27T08:24:37.386Z,0
2016-10-27T08:25:37.367Z,0
2016-10-27T08:26:37.560Z,0
2016-10-27T08:27:37.531Z,5
2016-10-27T08:28:37.504Z,5
2016-10-27T08:29:37.555Z,5
2016-10-27T08:30:37.653Z,5
2016-10-27T08:31:37.805Z,5
2016-10-27T08:32:37.935Z,5
2016-10-27T08:33:37.811Z,5
2016-10-27T08:34:37.858Z,5
2016-10-27T08:35:37.858Z,5
2016-10-27T08:36:37.933Z,10
2016-10-27T08:37:38.086Z,10
2016-10-27T08:38:38.754Z,10
2016-10-27T08:39:38.068Z,10
2016-10-27T08:40:38.183Z,10
2016-10-27T08:41:38.223Z,10
2016-10-27T08:42:38.387Z,10
2016-10-27T08:43:38.288Z,10
2016-10-27T08:44:38.907Z,10
2016-10-27T08:45:38.905Z,10
2016-10-27T08:46:38.417Z,10
2016-10-27T08:47:38.626Z,10
2016-10-27T08:48:38.549Z,10
2016-10-27T08:49:38.651Z,15
2016-10-27T08:50:38.648Z,15
2016-10-27T08:51:38.722Z,15
2016-10-27T08:52:38.949Z,15
2016-10-27T08:53:38.812Z,15
2016-10-27T08:54:38.955Z,15
2016-10-27T08:55:38.943Z,15
2016-10-27T08:56:40.018Z,20
2016-10-27T08:57:39.665Z,20
2016-10-27T08:58:39.045Z,20
2016-10-27T08:59:39.105Z,20
2016-10-27T09:00:40.239Z,20
2016-10-27T09:01:39.763Z,20
2016-10-27T09:02:39.330Z,20
2016-10-27T09:03:39.326Z,20
2016-10-27T09:04:39.968Z,20
2016-10-27T09:05:39.997Z,20
2016-10-27T09:06:39.505Z,20
2016-10-27T09:07:39.618Z,25
2016-10-27T09:08:40.186Z,25
2016-10-27T09:09:40.185Z,25
2016-10-27T09:10:40.177Z,25
2016-10-27T09:11:40.261Z,25
2016-10-27T09:12:39.744Z,25
2016-10-27T09:13:40.511Z,30
2016-10-27T09:14:39.897Z,30
2016-10-27T09:15:39.977Z,30
2016-10-27T09:16:40.014Z,30
2016-10-27T09:17:40.588Z,30
2016-10-27T09:18:40.259Z,30
2016-10-27T09:19:40.199Z,35
2016-10-27T09:20:40.304Z,35
2016-10-27T09:21:40.772Z,35
2016-10-27T09:22:40.789Z,40
2016-10-27T09:23:40.495Z,40
2016-10-27T09:24:40.340Z,40
2016-10-27T09:25:40.519Z,40
2016-10-27T09:26:40.523Z,35
2016-10-27T09:27:40.561Z,40
2016-10-27T09:28:40.668Z,40
2016-10-27T09:29:46.970Z,45
2016-10-27T09:30:40.720Z,45
2016-10-27T09:31:40.682Z,40
2016-10-27T09:32:40.819Z,35
2016-10-27T09:33:40.883Z,30
2016-10-27T09:34:40.989Z,30
2016-10-27T09:35:40.979Z,30
2016-10-27T09:36:41.008Z,25
2016-10-27T09:37:41.612Z,25
2016-10-27T09:38:41.097Z,25
2016-10-27T09:39:41.256Z,25
2016-10-27T09:40:41.794Z,30
2016-10-27T09:41:41.289Z,35
2016-10-27T09:42:41.336Z,45
2016-10-27T09:43:41.899Z,60
2016-10-27T09:44:41.518Z,75
2016-10-27T09:45:41.440Z,125
2016-10-27T09:46:41.530Z,270
2016-10-27T09:47:41.585Z,410
2016-10-27T09:48:41.636Z,1410
2016-10-27T09:49:41.741Z,1130
2016-10-27T09:50:42.262Z,610
2016-10-27T09:51:41.828Z,185
2016-10-27T09:52:42.051Z,110
2016-10-27T09:53:41.941Z,90
2016-10-27T09:54:42.084Z,65
2016-10-27T09:55:42.559Z,60
2016-10-27T09:56:42.058Z,55
2016-10-27T09:57:42.098Z,55
2016-10-27T09:58:42.194Z,55
2016-10-27T09:59:42.309Z,50
2016-10-27T10:00:42.213Z,50
2016-10-27T10:01:42.831Z,50
2016-10-27T10:02:42.362Z,50
2016-10-27T10:03:42.651Z,50
2016-10-27T10:04:43.066Z,50
2016-10-27T10:05:43.089Z,50
2016-10-27T10:06:43.083Z,50
2016-10-27T10:07:42.635Z,55
2016-10-27T10:08:42.687Z,55
2016-10-27T10:09:42.855Z,55
2016-10-27T10:10:43.318Z,55
2016-10-27T10:11:42.816Z,55
2016-10-27T10:12:42.969Z,55
2016-10-27T10:13:42.938Z,60
2016-10-27T10:14:43.013Z,55
2016-10-27T10:15:43.129Z,60
2016-10-27T10:16:43.105Z,70
2016-10-27T10:17:43.189Z,70
2016-10-27T10:18:43.223Z,75
2016-10-27T10:19:43.271Z,80
2016-10-27T10:20:43.397Z,80
2016-10-27T10:21:43.313Z,100
2016-10-27T10:22:43.365Z,155
2016-10-27T10:23:43.413Z,105
2016-10-27T10:24:44.028Z,125
2016-10-27T10:25:43.724Z,130
2016-10-27T10:26:43.620Z,155
2016-10-27T10:27:43.647Z,225
2016-10-27T10:28:43.744Z,175
2016-10-27T10:29:43.938Z,155
2016-10-27T10:30:43.888Z,140
2016-10-27T10:31:43.890Z,140
2016-10-27T10:32:45.016Z,130
2016-10-27T10:33:43.916Z,150
2016-10-27T10:34:45.050Z,165
2016-10-27T10:35:44.159Z,165
2016-10-27T10:36:44.609Z,150
2016-10-27T10:37:44.728Z,140
2016-10-27T10:38:44.760Z,130
2016-10-27T10:39:44.789Z,130
2016-10-27T10:40:44.416Z,125
2016-10-27T10:41:44.350Z,130
2016-10-27T10:42:44.987Z,125
2016-10-27T10:43:44.475Z,120
2016-10-27T10:44:44.507Z,120
2016-10-27T10:45:44.720Z,120
2016-10-27T10:46:45.845Z,120
2016-10-27T10:47:45.183Z,120
2016-10-27T10:48:44.739Z,115
2016-10-27T10:49:44.788Z,110
2016-10-27T10:50:44.967Z,105
2016-10-27T10:51:44.941Z,110
2016-10-27T10:52:45.148Z,110
2016-10-27T10:53:45.016Z,110
2016-10-27T10:54:45.061Z,110
2016-10-27T10:55:45.785Z,105
2016-10-27T10:56:45.177Z,105
2016-10-27T10:57:45.217Z,105
2016-10-27T10:58:45.307Z,105
2016-10-27T10:59:45.389Z,110
2016-10-27T11:00:46.023Z,110
2016-10-27T11:01:45.441Z,110
2016-10-27T11:02:45.464Z,110
2016-10-27T11:03:45.606Z,110
2016-10-27T11:04:46.270Z,110
2016-10-27T11:05:45.640Z,110
2016-10-27T11:06:45.820Z,110
2016-10-27T11:07:45.794Z,115
2016-10-27T11:08:45.759Z,120
2016-10-27T11:09:46.416Z,115
2016-10-27T11:10:46.369Z,115
2016-10-27T11:11:46.060Z,115
2016-10-27T11:12:46.033Z,120
2016-10-27T11:13:46.064Z,125
2016-10-27T11:14:46.117Z,125
2016-10-27T11:15:46.191Z,130
2016-10-27T11:16:46.515Z,130
2016-10-27T11:17:46.801Z,135
2016-10-27T11:18:47.341Z,140
2016-10-27T11:19:46.960Z,145
2016-10-27T11:20:46.379Z,145
2016-10-27T11:21:47.611Z,145
2016-10-27T11:22:46.530Z,155
2016-10-27T11:23:46.591Z,155
2016-10-27T11:24:46.628Z,160
2016-10-27T11:25:46.683Z,160
2016-10-27T11:26:46.818Z,160
2016-10-27T11:27:46.846Z,160
2016-10-27T11:28:47.015Z,160
2016-10-27T11:29:46.854Z,160
2016-10-27T11:30:46.897Z,155
2016-10-27T11:31:46.971Z,155
2016-10-27T11:32:47.113Z,140
2016-10-27T11:33:47.334Z,130
2016-10-27T11:34:47.161Z,120
2016-10-27T11:35:47.198Z,120
2016-10-27T11:36:47.236Z,125
2016-10-27T11:37:47.410Z,130
2016-10-27T11:38:47.522Z,140
2016-10-27T11:39:48.473Z,175
2016-10-27T11:40:47.560Z,190
2016-10-27T11:41:47.475Z,205
2016-10-27T11:42:48.158Z,185
2016-10-27T11:43:47.639Z,220
2016-10-27T11:44:48.408Z,215
2016-10-27T11:45:48.290Z,180
2016-10-27T11:46:47.810Z,170
2016-10-27T11:47:47.941Z,150
2016-10-27T11:48:47.940Z,130
2016-10-27T11:49:47.950Z,105
2016-10-27T11:50:47.976Z,85
2016-10-27T11:51:48.043Z,75
2016-10-27T11:52:48.210Z,70
2016-10-27T11:53:48.127Z,70
2016-10-27T11:54:48.703Z,70
2016-10-27T11:55:48.280Z,80
2016-10-27T11:56:48.345Z,105
2016-10-27T11:57:48.480Z,120
2016-10-27T11:58:48.903Z,140
2016-10-27T11:59:48.493Z,155
2016-10-27T12:00:49.005Z,180
2016-10-27T12:01:48.583Z,185
2016-10-27T12:02:50.919Z,180
2016-10-27T12:03:49.262Z,180
2016-10-27T12:04:49.795Z,175
2016-10-27T12:05:49.325Z,170
2016-10-27T12:06:48.865Z,180
2016-10-27T12:07:48.972Z,175
2016-10-27T12:08:50.133Z,190
2016-10-27T12:09:49.550Z,180
2016-10-27T12:10:49.100Z,210
2016-10-27T12:11:49.660Z,180
2016-10-27T12:12:49.167Z,155
2016-10-27T12:13:49.313Z,145
2016-10-27T12:14:52.325Z,150
2016-10-27T12:15:49.919Z,140
2016-10-27T12:16:49.839Z,130
2016-10-27T12:17:49.948Z,130
2016-10-27T12:18:50.090Z,135
2016-10-27T12:19:49.488Z,125
2016-10-27T12:20:50.122Z,100
2016-10-27T12:21:49.627Z,90
2016-10-27T12:22:49.711Z,85
2016-10-27T12:23:50.396Z,80
2016-10-27T12:24:49.975Z,75
2016-10-27T12:25:49.863Z,75
2016-10-27T12:26:51.419Z,75
2016-10-27T12:27:49.948Z,80
2016-10-27T12:28:50.138Z,90
2016-10-27T12:29:50.574Z,100
2016-10-27T12:30:50.166Z,105
2016-10-27T12:31:50.748Z,115
2016-10-27T12:32:50.426Z,120
2016-10-27T12:33:50.257Z,125
2016-10-27T12:34:51.019Z,125
2016-10-27T12:35:50.348Z,125
2016-10-27T12:36:50.668Z,130
2016-10-27T12:37:50.529Z,140
2016-10-27T12:38:50.553Z,145
2016-10-27T12:39:51.273Z,150
2016-10-27T12:40:50.678Z,160
2016-10-27T12:41:51.251Z,170
2016-10-27T12:42:51.362Z,170
2016-10-27T12:43:51.789Z,175
2016-10-27T12:44:51.529Z,180
2016-10-27T12:45:50.895Z,195
2016-10-27T12:46:51.219Z,185
2016-10-27T12:47:51.056Z,170
2016-10-27T12:48:51.642Z,165
2016-10-27T12:49:51.192Z,170
2016-10-27T12:50:52.305Z,170
2016-10-27T12:51:51.251Z,160
2016-10-27T12:52:51.909Z,165
2016-10-27T12:53:51.370Z,160
2016-10-27T12:54:51.573Z,155
2016-10-27T12:55:52.782Z,150
2016-10-27T12:56:51.471Z,155
2016-10-27T12:57:52.092Z,150
2016-10-27T12:58:51.636Z,150
2016-10-27T12:59:51.782Z,155
2016-10-27T13:00:51.764Z,145
2016-10-27T13:01:52.320Z,135
2016-10-27T13:02:52.352Z,140
2016-10-27T13:03:51.985Z,145
2016-10-27T13:04:52.576Z,150
2016-10-27T13:05:52.515Z,145
2016-10-27T13:06:52.055Z,155
2016-10-27T13:07:52.151Z,140
2016-10-27T13:08:52.155Z,170
2016-10-27T13:09:52.820Z,185
2016-10-27T13:10:52.286Z,160
2016-10-27T13:11:52.362Z,170
2016-10-27T13:12:52.917Z,165
2016-10-27T13:13:52.421Z,140
2016-10-27T13:14:53.032Z,145
2016-10-27T13:15:53.697Z,130
2016-10-27T13:16:52.584Z,115
2016-10-27T13:17:53.859Z,90
2016-10-27T13:18:53.405Z,75
2016-10-27T13:19:54.049Z,70
2016-10-27T13:20:53.662Z,60
2016-10-27T13:21:53.600Z,55
2016-10-27T13:22:53.436Z,50
2016-10-27T13:23:53.494Z,40
2016-10-27T13:24:54.044Z,45
2016-10-27T13:25:53.704Z,45
2016-10-27T13:26:53.867Z,45
2016-10-27T13:27:53.646Z,40
2016-10-27T13:28:53.242Z,40
2016-10-27T13:29:54.317Z,35
2016-10-27T13:30:53.942Z,35
2016-10-27T13:31:53.888Z,35
2016-10-27T13:32:54.011Z,40
2016-10-27T13:33:55.066Z,40
2016-10-27T13:34:54.044Z,45
2016-10-27T13:35:54.260Z,45
2016-10-27T13:36:53.667Z,45
2016-10-27T13:37:54.223Z,45
2016-10-27T13:38:54.217Z,45
2016-10-27T13:39:53.793Z,50
2016-10-27T13:40:54.425Z,45
2016-10-27T13:41:54.903Z,45
2016-10-27T13:42:53.957Z,45
2016-10-27T13:43:54.259Z,40
2016-10-27T13:44:54.023Z,40
2016-10-27T13:45:55.346Z,45
2016-10-27T13:46:54.214Z,50
2016-10-27T13:47:54.307Z,55
2016-10-27T13:48:54.796Z,55
2016-10-27T13:49:54.922Z,55
2016-10-27T13:50:54.927Z,50
2016-10-27T13:51:55.012Z,50
2016-10-27T13:52:55.002Z,50
2016-10-27T13:53:55.047Z,50
2016-10-27T13:54:54.547Z,55
2016-10-27T13:55:55.628Z,50
2016-10-27T13:56:54.976Z,40
2016-10-27T13:57:55.291Z,35
2016-10-27T13:58:55.310Z,30
2016-10-27T13:59:54.916Z,25
2016-10-27T14:00:55.442Z,20
2016-10-27T14:02:00.550Z,20
2016-10-27T14:02:56.052Z,20
2016-10-27T14:03:55.125Z,20
2016-10-27T14:04:55.164Z,15
2016-10-27T14:05:55.209Z,20
2016-10-27T14:06:56.565Z,25
2016-10-27T14:07:55.993Z,30
2016-10-27T14:08:55.889Z,30
2016-10-27T14:09:55.896Z,30
2016-10-27T14:10:55.449Z,30
2016-10-27T14:11:55.611Z,35
2016-10-27T14:12:55.561Z,35
2016-10-27T14:13:56.164Z,40
2016-10-27T14:14:56.225Z,45
2016-10-27T14:15:56.004Z,50
2016-10-27T14:17:00.281Z,55
2016-10-27T14:17:56.524Z,60
2016-10-27T14:18:56.508Z,55
2016-10-27T14:19:55.965Z,55
2016-10-27T14:20:56.616Z,60
2016-10-27T14:21:56.597Z,75
2016-10-27T14:22:57.164Z,95
2016-10-27T14:23:56.914Z,105
2016-10-27T14:24:56.218Z,110
2016-10-27T14:25:56.257Z,125
2016-10-27T14:26:56.326Z,145
2016-10-27T14:27:56.483Z,155
2016-10-27T14:28:56.406Z,145